Time;durP1;ratioP1;P1;durP2;ratioP2;P2;SDS_P1;SDS_P2;PMS_P1;PMS_P2;Temp;Humidity;BMP_temperature;BMP_pressure;BME280_temperature;BME280_humidity;BME280_pressure;Samples;Min_cycle;Max_cycle;Signal;HPM_P1;HPM_P2
2022/06/25 00:01:13;;;;;;;6.95;3.50;;;;;;;;;;5067888;28;20033;-74
2022/06/25 00:03:40;;;;;;;6.15;3.85;;;;;;;;;;5055416;28;20025;-70
2022/06/25 00:06:06;;;;;;;6.50;3.55;;;;;;;;;;5069776;28;20378;-74
2022/06/25 00:08:33;;;;;;;6.30;3.65;;;;;;;;;;5065151;28;20048;-68
2022/06/25 00:11:00;;;;;;;4.95;3.65;;;;;;;;;;5064699;28;20127;-73
2022/06/25 00:13:26;;;;;;;7.90;3.80;;;;;;;;;;5065426;28;20021;-74
2022/06/25 00:15:52;;;;;;;5.30;3.90;;;;;;;;;;5066307;28;20031;-71
2022/06/25 00:18:18;;;;;;;5.13;3.85;;;;;;;;;;5064415;28;20025;-73
2022/06/25 00:20:45;;;;;;;8.20;3.80;;;;;;;;;;5064576;28;20052;-71
2022/06/25 00:23:12;;;;;;;9.50;4.10;;;;;;;;;;5065619;28;20029;-70
2022/06/25 00:25:38;;;;;;;9.75;4.20;;;;;;;;;;5064590;28;20035;-74
2022/06/25 00:28:04;;;;;;;6.35;3.88;;;;;;;;;;5070675;28;20021;-72
2022/06/25 00:30:31;;;;;;;5.13;4.00;;;;;;;;;;5068258;28;20120;-71
2022/06/25 00:32:57;;;;;;;5.78;4.22;;;;;;;;;;5063575;28;20350;-73
2022/06/25 00:35:23;;;;;;;6.13;3.90;;;;;;;;;;5069310;28;20029;-74
2022/06/25 00:37:49;;;;;;;4.65;3.85;;;;;;;;;;5059660;28;20127;-72
2022/06/25 00:40:15;;;;;;;5.78;4.03;;;;;;;;;;5068196;28;20059;-70
2022/06/25 00:42:42;;;;;;;7.43;3.78;;;;;;;;;;5070890;28;20037;-73
2022/06/25 00:45:09;;;;;;;4.55;3.70;;;;;;;;;;5062107;28;20024;-74
2022/06/25 00:47:35;;;;;;;4.95;3.70;;;;;;;;;;5052328;28;20028;-74
2022/06/25 00:50:01;;;;;;;7.20;3.75;;;;;;;;;;5068045;28;20041;-69
2022/06/25 00:52:31;;;;;;;5.97;3.70;;;;;;;;;;5070116;28;20512;-74
2022/06/25 00:54:59;;;;;;;8.23;3.85;;;;;;;;;;5068658;28;20033;-74
2022/06/25 00:57:26;;;;;;;4.72;3.92;;;;;;;;;;5064900;28;20021;-74
2022/06/25 00:59:54;;;;;;;6.47;4.03;;;;;;;;;;5068680;28;20029;-71
2022/06/25 01:02:20;;;;;;;5.38;4.10;;;;;;;;;;5065981;28;20082;-74
2022/06/25 01:04:47;;;;;;;5.00;3.80;;;;;;;;;;5055112;28;20359;-74
2022/06/25 01:07:13;;;;;;;4.78;3.40;;;;;;;;;;5071822;28;20039;-75
2022/06/25 01:09:40;;;;;;;8.15;3.83;;;;;;;;;;5054660;28;20047;-74
2022/06/25 01:12:06;;;;;;;5.45;3.70;;;;;;;;;;5072585;28;20377;-74
2022/06/25 01:14:32;;;;;;;7.57;4.00;;;;;;;;;;5072670;28;20056;-73
2022/06/25 01:16:59;;;;;;;5.03;3.80;;;;;;;;;;5072433;28;20029;-71
2022/06/25 01:19:25;;;;;;;7.28;3.85;;;;;;;;;;5070102;28;20059;-69
2022/06/25 01:21:51;;;;;;;4.57;3.70;;;;;;;;;;5071157;28;20025;-70
2022/06/25 01:24:17;;;;;;;6.45;3.85;;;;;;;;;;5071396;28;20028;-74
2022/06/25 01:26:43;;;;;;;6.65;3.88;;;;;;;;;;5065471;28;20079;-69
2022/06/25 01:29:09;;;;;;;6.57;4.03;;;;;;;;;;5072287;28;20035;-73
2022/06/25 01:31:36;;;;;;;5.72;4.03;;;;;;;;;;5068655;28;20045;-74
2022/06/25 01:34:03;;;;;;;7.90;4.13;;;;;;;;;;5072464;28;20031;-70
2022/06/25 01:36:29;;;;;;;6.05;4.28;;;;;;;;;;5055925;28;20023;-73
2022/06/25 01:38:55;;;;;;;6.85;4.00;;;;;;;;;;5063669;28;20031;-69
2022/06/25 01:41:21;;;;;;;6.75;3.97;;;;;;;;;;5072930;28;20049;-69
2022/06/25 01:43:47;;;;;;;6.03;4.15;;;;;;;;;;5069418;28;20025;-70
2022/06/25 01:46:13;;;;;;;7.00;4.28;;;;;;;;;;5066370;28;20390;-70
2022/06/25 01:48:39;;;;;;;6.85;3.95;;;;;;;;;;5067919;28;20025;-74
2022/06/25 01:51:06;;;;;;;5.50;4.28;;;;;;;;;;5073228;28;20028;-72
2022/06/25 01:53:32;;;;;;;6.18;4.22;;;;;;;;;;5064370;28;20048;-72
2022/06/25 01:55:58;;;;;;;7.05;4.20;;;;;;;;;;5068778;28;20159;-72
2022/06/25 01:58:24;;;;;;;5.72;3.95;;;;;;;;;;5072098;28;20013;-71
2022/06/25 02:00:50;;;;;;;7.05;4.40;;;;;;;;;;5065308;28;20029;-74
2022/06/25 02:03:16;;;;;;;6.45;4.22;;;;;;;;;;5066430;28;20482;-73
2022/06/25 02:05:58;;;;;;;8.05;4.97;;;;;;;;;;5063412;28;20029;-71
2022/06/25 02:08:35;;;;;;;8.68;4.90;;;;;;;;;;5072877;28;20028;-70
2022/06/25 02:11:03;;;;;;;7.65;4.82;;;;;;;;;;5067776;28;20060;-73
2022/06/25 02:13:29;;;;;;;10.50;5.07;;;;;;;;;;5066151;28;20108;-72
2022/06/25 02:15:55;;;;;;;6.10;4.60;;;;;;;;;;5068287;28;20483;-75
2022/06/25 02:18:22;;;;;;;6.68;4.65;;;;;;;;;;5065267;28;20028;-72
2022/06/25 02:20:48;;;;;;;8.30;4.65;;;;;;;;;;5067555;28;20040;-69
2022/06/25 02:23:15;;;;;;;5.88;4.30;;;;;;;;;;5068119;28;20032;-69
2022/06/25 02:25:42;;;;;;;10.10;4.72;;;;;;;;;;5066385;28;20108;-70
2022/06/25 02:28:08;;;;;;;8.52;4.57;;;;;;;;;;5061851;28;20110;-74
2022/06/25 02:30:34;;;;;;;8.50;4.50;;;;;;;;;;5066423;28;20099;-73
2022/06/25 02:33:00;;;;;;;6.25;4.68;;;;;;;;;;5068343;28;20414;-73
2022/06/25 02:35:26;;;;;;;7.25;4.40;;;;;;;;;;5065801;28;20040;-73
2022/06/25 02:37:52;;;;;;;6.90;4.63;;;;;;;;;;5068385;28;20029;-72
2022/06/25 02:40:18;;;;;;;6.93;4.72;;;;;;;;;;5069200;28;20390;-69
2022/06/25 02:42:45;;;;;;;8.13;4.90;;;;;;;;;;5072268;28;20029;-73
2022/06/25 02:45:11;;;;;;;7.25;4.90;;;;;;;;;;5072054;28;20100;-74
2022/06/25 03:00:17;;;;;;;8.68;4.90;;;;;;;;;;5082609;28;20805;-73
2022/06/25 03:02:44;;;;;;;17.10;5.65;;;;;;;;;;5083965;28;20021;-73
2022/06/25 03:05:10;;;;;;;9.48;4.70;;;;;;;;;;5082338;28;20120;-74
2022/06/25 03:07:36;;;;;;;8.10;4.55;;;;;;;;;;5074144;28;20028;-73
2022/06/25 03:10:02;;;;;;;10.18;4.53;;;;;;;;;;5086319;28;20043;-74
2022/06/25 03:12:29;;;;;;;8.60;4.88;;;;;;;;;;5081112;28;20059;-73
2022/06/25 03:14:55;;;;;;;10.93;5.10;;;;;;;;;;5087483;28;20570;-69
2022/06/25 03:17:21;;;;;;;13.38;5.93;;;;;;;;;;5080170;28;20025;-74
2022/06/25 03:19:47;;;;;;;10.82;5.10;;;;;;;;;;5094264;28;20034;-74
2022/06/25 03:22:13;;;;;;;8.45;5.00;;;;;;;;;;5084756;28;20055;-73
2022/06/25 03:24:39;;;;;;;8.88;5.55;;;;;;;;;;5080542;28;20097;-73
2022/06/25 03:27:05;;;;;;;9.13;5.20;;;;;;;;;;5094416;28;20028;-70
2022/06/25 03:29:31;;;;;;;7.90;4.82;;;;;;;;;;5086498;28;20474;-73
2022/06/25 03:31:57;;;;;;;8.48;4.75;;;;;;;;;;5083049;28;20192;-73
2022/06/25 03:34:23;;;;;;;11.52;5.50;;;;;;;;;;5095679;28;20385;-75
2022/06/25 03:36:49;;;;;;;13.45;5.50;;;;;;;;;;5082197;28;20031;-73
2022/06/25 03:39:45;;;;;;;9.70;5.28;;;;;;;;;;5084210;28;20051;-73
2022/06/25 03:42:11;;;;;;;10.80;5.03;;;;;;;;;;5079434;28;20024;-73
2022/06/25 03:44:37;;;;;;;8.27;4.72;;;;;;;;;;5084819;28;20036;-71
2022/06/25 03:47:04;;;;;;;8.60;5.03;;;;;;;;;;5083810;28;20135;-75
2022/06/25 03:49:30;;;;;;;11.38;5.00;;;;;;;;;;5091274;28;20064;-75
2022/06/25 03:51:56;;;;;;;8.18;5.20;;;;;;;;;;5072138;28;20025;-74
2022/06/25 03:54:22;;;;;;;9.45;5.20;;;;;;;;;;5072840;28;20500;-70
2022/06/25 03:56:48;;;;;;;14.05;4.85;;;;;;;;;;5073279;28;20029;-74
2022/06/25 03:59:14;;;;;;;11.13;5.05;;;;;;;;;;5084522;28;20565;-74
2022/06/25 04:01:40;;;;;;;9.68;5.05;;;;;;;;;;5074510;28;20433;-74
2022/06/25 04:04:06;;;;;;;13.70;5.40;;;;;;;;;;5080180;28;20033;-74
2022/06/25 04:06:32;;;;;;;16.77;5.75;;;;;;;;;;5084069;28;20020;-74
2022/06/25 04:08:58;;;;;;;13.02;5.22;;;;;;;;;;5078422;28;20028;-70
2022/06/25 04:11:24;;;;;;;13.77;5.50;;;;;;;;;;5076049;28;20393;-74
2022/06/25 04:13:50;;;;;;;13.90;5.70;;;;;;;;;;5074596;28;20138;-71
2022/06/25 04:16:16;;;;;;;9.63;5.63;;;;;;;;;;5078245;28;20070;-74
2022/06/25 04:18:42;;;;;;;12.63;5.13;;;;;;;;;;5083212;28;20378;-69
2022/06/25 04:21:08;;;;;;;10.02;4.70;;;;;;;;;;5074250;28;20359;-71
2022/06/25 04:23:35;;;;;;;10.27;5.40;;;;;;;;;;5074495;28;20029;-74
2022/06/25 04:26:01;;;;;;;15.32;5.72;;;;;;;;;;5080663;28;20024;-74
2022/06/25 04:31:11;;;;;;;12.10;4.72;;;;;;;;;;5081888;28;20043;-74
2022/06/25 04:33:37;;;;;;;13.55;5.18;;;;;;;;;;5074276;28;20024;-71
2022/06/25 04:36:03;;;;;;;14.88;6.05;;;;;;;;;;5075572;28;20016;-70
2022/06/25 04:38:29;;;;;;;11.82;5.30;;;;;;;;;;5079797;28;20081;-70
2022/06/25 04:40:56;;;;;;;10.60;5.50;;;;;;;;;;5075961;28;20053;-75
2022/06/25 04:43:22;;;;;;;10.82;6.70;;;;;;;;;;5082102;28;20020;-71
2022/06/25 04:45:49;;;;;;;10.02;6.00;;;;;;;;;;5077539;28;20051;-73
2022/06/25 04:48:15;;;;;;;10.98;6.50;;;;;;;;;;5076111;28;20044;-69
2022/06/25 04:50:42;;;;;;;9.02;5.40;;;;;;;;;;5080439;28;20150;-74
2022/06/25 04:53:08;;;;;;;27.55;13.60;;;;;;;;;;5077774;28;20020;-70
2022/06/25 04:55:34;;;;;;;31.13;16.40;;;;;;;;;;5080833;28;20020;-75
2022/06/25 04:58:00;;;;;;;21.17;10.85;;;;;;;;;;5073337;28;20498;-70
2022/06/25 05:00:27;;;;;;;18.83;8.73;;;;;;;;;;5075156;28;20029;-71
2022/06/25 05:02:53;;;;;;;11.20;6.07;;;;;;;;;;5076250;28;20389;-74
2022/06/25 05:05:19;;;;;;;15.13;6.20;;;;;;;;;;5082586;28;20116;-75
2022/06/25 05:07:45;;;;;;;10.02;6.35;;;;;;;;;;5073366;28;20029;-76
2022/06/25 05:10:11;;;;;;;31.13;14.65;;;;;;;;;;5074508;28;20567;-71
2022/06/25 05:15:22;;;;;;;20.90;11.27;;;;;;;;;;5085908;28;20074;-70
2022/06/25 05:17:49;;;;;;;19.70;10.82;;;;;;;;;;5080397;28;20497;-70
2022/06/25 05:20:15;;;;;;;21.50;10.57;;;;;;;;;;5077612;28;20482;-72
2022/06/25 05:22:41;;;;;;;15.68;8.57;;;;;;;;;;5073863;28;20029;-75
2022/06/25 05:25:08;;;;;;;11.98;6.00;;;;;;;;;;5082824;28;20394;-73
2022/06/25 05:27:34;;;;;;;11.68;6.90;;;;;;;;;;5080634;28;20066;-75
2022/06/25 05:30:00;;;;;;;17.83;6.18;;;;;;;;;;5079412;28;20036;-74
2022/06/25 05:32:26;;;;;;;9.55;5.70;;;;;;;;;;5072486;28;20021;-75
2022/06/25 05:34:52;;;;;;;10.63;5.85;;;;;;;;;;5083039;28;20055;-70
2022/06/25 05:37:18;;;;;;;13.52;5.63;;;;;;;;;;5073173;28;20016;-72
2022/06/25 05:39:44;;;;;;;11.50;6.22;;;;;;;;;;5072954;28;20028;-73
2022/06/25 05:42:10;;;;;;;10.18;5.72;;;;;;;;;;5076469;28;20081;-73
2022/06/25 05:44:37;;;;;;;11.68;5.95;;;;;;;;;;5081331;28;20533;-70
2022/06/25 05:47:06;;;;;;;9.27;5.80;;;;;;;;;;5083029;28;20475;-71
2022/06/25 05:49:32;;;;;;;14.18;5.88;;;;;;;;;;5082740;28;20037;-71
2022/06/25 05:52:01;;;;;;;14.43;6.30;;;;;;;;;;5079061;28;20024;-73
2022/06/25 05:54:27;;;;;;;10.60;6.13;;;;;;;;;;5080665;28;20115;-71
2022/06/25 05:56:54;;;;;;;17.23;6.68;;;;;;;;;;5078573;28;20478;-74
2022/06/25 05:59:20;;;;;;;10.27;6.05;;;;;;;;;;5074233;28;20130;-74
2022/06/25 06:01:46;;;;;;;11.25;6.32;;;;;;;;;;5075112;28;20024;-71
2022/06/25 06:04:12;;;;;;;12.20;6.20;;;;;;;;;;5072871;28;20048;-72
2022/06/25 06:06:38;;;;;;;12.02;6.00;;;;;;;;;;5074956;28;20024;-74
2022/06/25 06:09:04;;;;;;;17.50;7.63;;;;;;;;;;5082222;28;20067;-71
2022/06/25 06:11:30;;;;;;;14.52;6.78;;;;;;;;;;5080293;28;20043;-70
2022/06/25 06:13:56;;;;;;;9.48;6.30;;;;;;;;;;5071381;28;20032;-72
2022/06/25 06:16:23;;;;;;;9.75;5.30;;;;;;;;;;5075981;28;20052;-72
2022/06/25 06:18:49;;;;;;;8.55;5.30;;;;;;;;;;5071424;28;20117;-76
2022/06/25 06:21:15;;;;;;;8.32;5.40;;;;;;;;;;5071255;28;20052;-77
2022/06/25 06:23:41;;;;;;;12.43;5.63;;;;;;;;;;5070161;28;20058;-74
2022/06/25 06:26:07;;;;;;;10.82;5.97;;;;;;;;;;5078044;28;20081;-75
2022/06/25 06:28:33;;;;;;;12.45;5.47;;;;;;;;;;5076956;28;20041;-75
2022/06/25 06:30:59;;;;;;;9.25;5.68;;;;;;;;;;5083781;28;20020;-74
2022/06/25 06:33:25;;;;;;;15.13;5.43;;;;;;;;;;5084114;28;20425;-73
2022/06/25 06:35:51;;;;;;;13.38;5.60;;;;;;;;;;5078926;28;20086;-74
2022/06/25 06:38:17;;;;;;;16.75;6.35;;;;;;;;;;5077442;28;20020;-74
2022/06/25 06:40:43;;;;;;;18.80;6.45;;;;;;;;;;5076561;28;20028;-73
2022/06/25 06:43:09;;;;;;;12.52;6.60;;;;;;;;;;5080308;28;20051;-77
2022/06/25 06:45:35;;;;;;;13.75;6.82;;;;;;;;;;5074806;28;20028;-72
2022/06/25 06:48:02;;;;;;;14.15;6.63;;;;;;;;;;5087386;28;20385;-74
2022/06/25 06:50:28;;;;;;;12.38;6.93;;;;;;;;;;5083510;28;20020;-76
2022/06/25 06:52:54;;;;;;;39.35;7.75;;;;;;;;;;5079020;28;20036;-76
2022/06/25 06:55:20;;;;;;;13.85;6.97;;;;;;;;;;5079970;28;20162;-73
2022/06/25 06:57:46;;;;;;;12.07;6.65;;;;;;;;;;5077573;28;20600;-72
2022/06/25 07:00:13;;;;;;;22.17;6.65;;;;;;;;;;5078347;28;20440;-72
2022/06/25 07:02:39;;;;;;;12.35;6.43;;;;;;;;;;5072265;28;20505;-74
2022/06/25 07:05:05;;;;;;;14.55;6.45;;;;;;;;;;5079375;28;20036;-74
2022/06/25 07:07:31;;;;;;;14.43;6.97;;;;;;;;;;5075134;28;20031;-73
2022/06/25 07:09:57;;;;;;;15.15;6.70;;;;;;;;;;5072794;28;20036;-73
2022/06/25 07:12:23;;;;;;;11.80;6.03;;;;;;;;;;5074781;28;20021;-74
2022/06/25 07:14:49;;;;;;;14.73;5.95;;;;;;;;;;5072670;28;20086;-73
2022/06/25 07:17:15;;;;;;;18.80;6.80;;;;;;;;;;5073625;28;20021;-78
2022/06/25 07:19:41;;;;;;;15.95;6.85;;;;;;;;;;5074008;28;20055;-85
2022/06/25 07:22:07;;;;;;;15.52;6.90;;;;;;;;;;5072145;28;20074;-75
2022/06/25 07:24:33;;;;;;;19.73;7.50;;;;;;;;;;5080824;28;20040;-77
2022/06/25 07:27:00;;;;;;;31.23;7.45;;;;;;;;;;5082966;28;20051;-80
2022/06/25 07:29:26;;;;;;;56.90;8.75;;;;;;;;;;5080918;28;20028;-75
2022/06/25 07:31:52;;;;;;;23.88;7.65;;;;;;;;;;5076675;28;20162;-76
2022/06/25 07:34:18;;;;;;;22.25;6.60;;;;;;;;;;5081651;28;20035;-73
2022/06/25 07:36:44;;;;;;;17.58;6.43;;;;;;;;;;5077112;28;20070;-74
2022/06/25 07:39:10;;;;;;;12.85;6.40;;;;;;;;;;5079236;28;20513;-78
2022/06/25 07:41:36;;;;;;;23.80;6.65;;;;;;;;;;5075735;28;20028;-77
2022/06/25 07:44:02;;;;;;;15.80;6.15;;;;;;;;;;5082659;28;20024;-76
2022/06/25 07:46:28;;;;;;;21.30;6.43;;;;;;;;;;5082494;28;20027;-70
2022/06/25 07:48:54;;;;;;;20.55;6.80;;;;;;;;;;5078091;28;20035;-75
2022/06/25 07:54:05;;;;;;;15.27;5.70;;;;;;;;;;5078658;28;20051;-71
2022/06/25 07:56:31;;;;;;;18.38;5.70;;;;;;;;;;5080880;28;20016;-71
2022/06/25 07:58:57;;;;;;;23.83;6.90;;;;;;;;;;5086301;28;20058;-79
2022/06/25 08:01:23;;;;;;;41.63;7.85;;;;;;;;;;5075621;28;20028;-78
2022/06/25 08:03:49;;;;;;;15.07;5.47;;;;;;;;;;5079955;28;20520;-82
2022/06/25 08:06:15;;;;;;;12.57;5.05;;;;;;;;;;5077038;28;20470;-81
2022/06/25 08:08:42;;;;;;;27.42;6.28;;;;;;;;;;5072906;28;20067;-75
2022/06/25 08:11:08;;;;;;;26.23;6.30;;;;;;;;;;5079276;28;20029;-74
2022/06/25 08:13:34;;;;;;;69.15;11.02;;;;;;;;;;5075822;28;20746;-77
2022/06/25 08:16:00;;;;;;;19.67;8.65;;;;;;;;;;5078886;28;20035;-75
2022/06/25 08:18:26;;;;;;;13.68;7.78;;;;;;;;;;5078679;28;20465;-77
2022/06/25 08:20:52;;;;;;;12.35;6.07;;;;;;;;;;5076017;28;20036;-77
2022/06/25 08:23:18;;;;;;;12.48;6.65;;;;;;;;;;5075511;28;20074;-77
2022/06/25 08:25:44;;;;;;;13.05;4.95;;;;;;;;;;5076190;28;20028;-75
2022/06/25 08:28:10;;;;;;;11.50;4.55;;;;;;;;;;5079067;28;20076;-73
2022/06/25 08:30:39;;;;;;;14.43;5.03;;;;;;;;;;5098769;27;20046;-74
2022/06/25 08:33:05;;;;;;;8.88;4.05;;;;;;;;;;5098843;28;20029;-75
2022/06/25 08:35:31;;;;;;;10.77;5.00;;;;;;;;;;5100940;28;20027;-74
2022/06/25 08:37:57;;;;;;;27.55;6.18;;;;;;;;;;5096601;28;20036;-76
2022/06/25 08:40:23;;;;;;;19.70;5.35;;;;;;;;;;5098814;28;20023;-84
2022/06/25 08:42:49;;;;;;;16.88;4.65;;;;;;;;;;5101512;28;20106;-78
2022/06/25 08:45:17;;;;;;;11.48;4.80;;;;;;;;;;5095602;28;20042;-75
2022/06/25 08:47:53;;;;;;;12.93;4.47;;;;;;;;;;5102562;27;20035;-74
2022/06/25 08:50:21;;;;;;;16.33;5.78;;;;;;;;;;5100458;27;20568;-76
2022/06/25 08:52:48;;;;;;;11.35;4.80;;;;;;;;;;5095870;28;20106;-78
2022/06/25 08:55:20;;;;;;;16.52;5.45;;;;;;;;;;5099522;28;20015;-70
2022/06/25 08:57:47;;;;;;;10.23;4.93;;;;;;;;;;5100843;28;20540;-72
2022/06/25 09:00:13;;;;;;;13.70;5.75;;;;;;;;;;5086795;28;20378;-72
2022/06/25 09:02:39;;;;;;;8.77;5.18;;;;;;;;;;5106697;28;20028;-71
2022/06/25 09:05:08;;;;;;;12.43;5.68;;;;;;;;;;5084887;28;20023;-73
2022/06/25 09:07:35;;;;;;;11.80;4.38;;;;;;;;;;5099316;28;20024;-71
2022/06/25 09:10:02;;;;;;;11.23;4.68;;;;;;;;;;5100087;28;20020;-72
2022/06/25 09:12:28;;;;;;;12.02;4.80;;;;;;;;;;5101492;28;20095;-72
2022/06/25 09:14:54;;;;;;;10.23;5.07;;;;;;;;;;5100518;28;20499;-72
2022/06/25 09:17:20;;;;;;;12.10;4.88;;;;;;;;;;5097565;28;20110;-73
2022/06/25 09:19:47;;;;;;;35.92;5.75;;;;;;;;;;5108072;28;20035;-73
2022/06/25 09:22:17;;;;;;;68.43;9.10;;;;;;;;;;5097219;28;20059;-73
2022/06/25 09:24:48;;;;;;;27.38;5.68;;;;;;;;;;5097411;28;20046;-82
2022/06/25 09:27:17;;;;;;;14.57;4.88;;;;;;;;;;5103623;28;20123;-73
2022/06/25 09:29:45;;;;;;;11.95;4.50;;;;;;;;;;5101906;28;20366;-72
2022/06/25 09:32:13;;;;;;;11.40;4.63;;;;;;;;;;5106810;28;20034;-72
2022/06/25 09:34:39;;;;;;;13.57;4.93;;;;;;;;;;5097111;28;20034;-77
2022/06/25 09:37:19;;;;;;;8.65;4.60;;;;;;;;;;5097445;28;20031;-72
2022/06/25 09:39:46;;;;;;;13.25;4.85;;;;;;;;;;5102219;28;20032;-71
2022/06/25 09:42:34;;;;;;;14.02;5.05;;;;;;;;;;5083609;28;20118;-76
2022/06/25 09:45:04;;;;;;;18.33;5.30;;;;;;;;;;5102134;28;20096;-74
2022/06/25 09:47:31;;;;;;;17.60;4.60;;;;;;;;;;5095248;27;20424;-70
2022/06/25 09:50:25;;;;;;;15.70;5.40;;;;;;;;;;5100630;28;20413;-71
2022/06/25 09:53:01;;;;;;;90.15;67.68;;;;;;;;;;5081549;28;20034;-74
2022/06/25 09:55:30;;;;;;;25.70;9.45;;;;;;;;;;5098496;27;20110;-72
2022/06/25 09:57:57;;;;;;;31.52;6.15;;;;;;;;;;5097773;28;20116;-72
2022/06/25 10:00:24;;;;;;;232.40;17.70;;;;;;;;;;5096128;28;20051;-72
2022/06/25 12:15:20;;;;;;;41.33;7.97;;;;;;;;;;5231523;22;1592326;-75
2022/06/25 12:17:46;;;;;;;48.90;10.68;;;;;;;;;;5022542;28;20033;-74
2022/06/25 12:20:13;;;;;;;33.47;7.22;;;;;;;;;;5027494;28;20072;-75
2022/06/25 12:22:41;;;;;;;25.42;7.40;;;;;;;;;;5005192;28;20023;-75
2022/06/25 12:25:08;;;;;;;29.58;6.80;;;;;;;;;;5020861;28;20524;-75
2022/06/25 12:27:47;;;;;;;19.55;5.10;;;;;;;;;;5020360;28;20034;-75
2022/06/25 12:30:14;;;;;;;29.77;6.45;;;;;;;;;;5015403;28;20040;-75
2022/06/25 12:32:41;;;;;;;29.20;6.20;;;;;;;;;;5021693;28;20036;-75
2022/06/25 12:35:20;;;;;;;25.58;5.38;;;;;;;;;;5016829;28;20037;-75
2022/06/25 12:38:03;;;;;;;20.30;6.47;;;;;;;;;;5014087;28;20060;-75
2022/06/25 12:40:30;;;;;;;47.75;8.48;;;;;;;;;;5017216;28;20022;-74
2022/06/25 12:43:01;;;;;;;26.02;5.90;;;;;;;;;;5022969;28;20057;-75
2022/06/25 12:45:30;;;;;;;65.35;11.75;;;;;;;;;;4994632;28;20454;-75
2022/06/25 12:47:56;;;;;;;29.08;7.45;;;;;;;;;;5016975;28;20022;-75
2022/06/25 12:50:26;;;;;;;36.72;8.65;;;;;;;;;;5012674;28;20028;-74
2022/06/25 12:52:53;;;;;;;41.22;9.55;;;;;;;;;;5019134;28;20034;-75
2022/06/25 12:55:24;;;;;;;109.20;19.23;;;;;;;;;;5027172;28;20031;-74
2022/06/25 12:57:50;;;;;;;33.38;8.45;;;;;;;;;;5033949;28;20077;-75
2022/06/25 13:00:18;;;;;;;27.45;7.38;;;;;;;;;;5041372;28;20029;-74
2022/06/25 13:02:44;;;;;;;29.58;8.00;;;;;;;;;;5016998;28;20030;-75
2022/06/25 13:05:10;;;;;;;42.13;11.05;;;;;;;;;;5039632;28;20032;-75
2022/06/25 13:07:36;;;;;;;35.55;8.38;;;;;;;;;;5035753;28;20025;-75
2022/06/25 13:10:02;;;;;;;43.25;8.85;;;;;;;;;;5024105;28;20026;-75
2022/06/25 13:12:31;;;;;;;111.50;14.98;;;;;;;;;;5037884;28;20056;-75
2022/06/25 13:14:58;;;;;;;64.25;12.30;;;;;;;;;;5030790;28;20034;-74
2022/06/25 13:17:24;;;;;;;42.92;8.60;;;;;;;;;;5021797;28;20398;-75
2022/06/25 13:19:52;;;;;;;54.78;9.85;;;;;;;;;;5018381;28;20085;-75
2022/06/25 13:22:18;;;;;;;16.95;5.45;;;;;;;;;;5025659;28;20052;-74
2022/06/25 13:24:44;;;;;;;34.70;7.22;;;;;;;;;;5022418;28;20124;-75
2022/06/25 13:27:11;;;;;;;58.10;10.05;;;;;;;;;;5018007;28;20084;-75
2022/06/25 13:29:37;;;;;;;24.23;6.50;;;;;;;;;;5031982;28;20041;-75
2022/06/25 13:32:03;;;;;;;23.85;6.68;;;;;;;;;;5013783;28;20108;-74
2022/06/25 13:34:29;;;;;;;19.00;6.00;;;;;;;;;;5009004;28;20105;-76
2022/06/25 13:36:56;;;;;;;34.63;7.68;;;;;;;;;;5022773;28;20072;-75
2022/06/25 13:39:23;;;;;;;55.00;8.90;;;;;;;;;;4990874;28;20030;-75
2022/06/25 13:41:53;;;;;;;29.48;7.03;;;;;;;;;;5017259;28;20037;-74
2022/06/25 13:44:20;;;;;;;21.48;6.95;;;;;;;;;;5014892;28;20064;-72
2022/06/25 13:46:46;;;;;;;23.70;6.10;;;;;;;;;;5017350;28;20022;-75
2022/06/25 13:49:12;;;;;;;23.38;6.50;;;;;;;;;;5013378;28;20369;-74
2022/06/25 13:51:38;;;;;;;17.20;5.25;;;;;;;;;;5026348;28;20422;-75
2022/06/25 13:54:04;;;;;;;16.85;5.00;;;;;;;;;;5014485;28;20022;-74
2022/06/25 13:56:32;;;;;;;15.00;5.00;;;;;;;;;;5004626;28;20763;-76
2022/06/25 13:58:58;;;;;;;18.52;5.25;;;;;;;;;;4984187;28;20039;-77
2022/06/25 14:01:24;;;;;;;14.00;5.20;;;;;;;;;;5007232;28;20022;-76
2022/06/25 14:03:50;;;;;;;18.05;5.10;;;;;;;;;;5008902;28;20029;-77
2022/06/25 14:06:16;;;;;;;14.43;4.95;;;;;;;;;;5010846;28;20037;-76
2022/06/25 14:08:43;;;;;;;12.55;4.47;;;;;;;;;;5008266;28;20151;-76
2022/06/25 14:11:11;;;;;;;13.90;4.80;;;;;;;;;;5010610;28;20072;-78
2022/06/25 14:13:37;;;;;;;12.20;4.65;;;;;;;;;;5006937;28;20037;-74
2022/06/25 14:16:03;;;;;;;12.77;5.13;;;;;;;;;;5005812;28;20049;-74
2022/06/25 14:18:29;;;;;;;10.85;4.38;;;;;;;;;;5008758;28;20037;-75
2022/06/25 14:20:55;;;;;;;13.98;4.40;;;;;;;;;;5008233;28;20033;-72
2022/06/25 14:23:22;;;;;;;11.23;5.00;;;;;;;;;;5006309;28;20050;-71
2022/06/25 14:25:48;;;;;;;15.38;5.07;;;;;;;;;;5011670;28;20046;-71
2022/06/25 14:28:16;;;;;;;11.15;3.95;;;;;;;;;;5009198;28;20176;-71
2022/06/25 14:30:42;;;;;;;9.65;4.15;;;;;;;;;;5009239;28;20033;-72
2022/06/25 14:33:09;;;;;;;12.90;4.22;;;;;;;;;;5010289;28;20037;-71
2022/06/25 14:35:35;;;;;;;12.38;4.05;;;;;;;;;;5010251;28;20045;-72
2022/06/25 14:43:31;;;;;;;14.07;4.57;;;;;;;;;;5015506;28;20503;-73
2022/06/25 14:45:57;;;;;;;9.68;3.97;;;;;;;;;;5010024;28;20030;-74
2022/06/25 14:48:23;;;;;;;11.07;4.10;;;;;;;;;;5006376;28;20026;-73
2022/06/25 14:50:50;;;;;;;10.27;4.30;;;;;;;;;;5006298;28;20034;-72
2022/06/25 14:53:16;;;;;;;8.45;4.22;;;;;;;;;;5006210;28;20022;-71
2022/06/25 14:55:42;;;;;;;12.38;3.88;;;;;;;;;;5008245;28;20073;-73
2022/06/25 14:58:08;;;;;;;7.93;3.85;;;;;;;;;;5015521;28;20038;-74
2022/06/25 15:00:34;;;;;;;15.02;4.00;;;;;;;;;;4990028;28;20113;-75
2022/06/25 15:03:00;;;;;;;10.75;3.90;;;;;;;;;;5011480;28;20040;-76
2022/06/25 15:05:28;;;;;;;10.65;3.92;;;;;;;;;;5007333;28;20026;-72
2022/06/25 15:07:55;;;;;;;11.63;4.55;;;;;;;;;;5009023;28;20052;-73
2022/06/25 15:10:21;;;;;;;12.32;3.83;;;;;;;;;;5006695;28;20522;-76
2022/06/25 15:12:47;;;;;;;13.18;4.57;;;;;;;;;;5009199;28;20022;-75
2022/06/25 15:15:13;;;;;;;11.90;3.90;;;;;;;;;;5011029;28;20045;-76
2022/06/25 15:17:40;;;;;;;9.05;3.85;;;;;;;;;;5008188;28;20128;-74
2022/06/25 15:20:07;;;;;;;9.57;3.90;;;;;;;;;;5009201;28;20088;-76
2022/06/25 15:22:33;;;;;;;13.52;4.43;;;;;;;;;;5016638;28;20041;-77
2022/06/25 15:24:59;;;;;;;10.40;4.00;;;;;;;;;;5011825;28;20038;-76
2022/06/25 15:27:25;;;;;;;10.68;4.13;;;;;;;;;;4990718;28;20113;-75
2022/06/25 15:29:52;;;;;;;9.07;3.92;;;;;;;;;;5013639;28;20029;-78
2022/06/25 15:32:18;;;;;;;8.20;3.95;;;;;;;;;;4992968;28;20037;-79
2022/06/25 15:34:44;;;;;;;8.82;4.00;;;;;;;;;;5002331;28;20194;-81
2022/06/25 15:37:10;;;;;;;9.30;3.53;;;;;;;;;;4994659;28;20042;-78
2022/06/25 15:39:37;;;;;;;10.50;3.90;;;;;;;;;;5013440;28;20022;-79
2022/06/25 15:42:04;;;;;;;11.40;3.90;;;;;;;;;;4994791;28;20057;-78
2022/06/25 15:44:30;;;;;;;10.05;4.38;;;;;;;;;;5000065;28;20122;-79
2022/06/25 15:46:56;;;;;;;14.52;3.67;;;;;;;;;;5011255;28;20049;-79
2022/06/25 15:49:22;;;;;;;8.52;3.67;;;;;;;;;;5013667;28;20018;-78
2022/06/25 15:51:48;;;;;;;11.20;3.80;;;;;;;;;;5004217;28;20426;-82
2022/06/25 15:54:14;;;;;;;11.38;4.05;;;;;;;;;;5010445;28;20037;-76
2022/06/25 15:56:40;;;;;;;15.20;5.35;;;;;;;;;;5010455;28;20079;-79
2022/06/25 16:01:51;;;;;;;9.90;4.38;;;;;;;;;;5010812;28;20124;-78
2022/06/25 16:04:17;;;;;;;11.57;3.80;;;;;;;;;;5013994;28;20112;-78
2022/06/25 16:06:43;;;;;;;14.45;4.30;;;;;;;;;;4989309;28;20069;-75
2022/06/25 16:09:09;;;;;;;10.35;4.22;;;;;;;;;;5012879;28;20018;-79
2022/06/25 16:11:38;;;;;;;12.20;4.72;;;;;;;;;;5012941;28;20026;-76
2022/06/25 16:14:08;;;;;;;8.38;4.00;;;;;;;;;;5010850;28;20081;-77
2022/06/25 16:16:35;;;;;;;9.98;3.80;;;;;;;;;;5009228;28;20427;-80
2022/06/25 16:19:01;;;;;;;12.32;4.00;;;;;;;;;;5009352;28;20022;-77
2022/06/25 16:21:30;;;;;;;12.48;3.92;;;;;;;;;;5010634;28;20558;-75
2022/06/25 16:23:56;;;;;;;11.55;3.88;;;;;;;;;;5012815;28;20116;-80
2022/06/25 16:26:22;;;;;;;12.13;4.15;;;;;;;;;;5008304;28;20029;-75
2022/06/25 16:28:48;;;;;;;17.27;5.13;;;;;;;;;;5012255;28;20022;-75
2022/06/25 16:31:14;;;;;;;11.95;4.88;;;;;;;;;;5010334;28;20026;-80
2022/06/25 16:33:40;;;;;;;8.50;4.18;;;;;;;;;;5011101;28;20046;-77
2022/06/25 16:36:07;;;;;;;8.88;4.00;;;;;;;;;;5013768;28;20041;-76
2022/06/25 16:38:34;;;;;;;7.53;3.97;;;;;;;;;;5011785;28;20042;-74
2022/06/25 16:41:01;;;;;;;8.38;3.88;;;;;;;;;;5009645;28;20088;-74
2022/06/25 16:46:12;;;;;;;12.20;4.70;;;;;;;;;;5012687;28;20092;-74
2022/06/25 16:48:38;;;;;;;7.82;4.10;;;;;;;;;;5012644;28;20368;-73
2022/06/25 16:51:06;;;;;;;10.23;4.13;;;;;;;;;;5012982;28;20032;-73
2022/06/25 16:53:33;;;;;;;9.85;3.85;;;;;;;;;;5011672;28;20022;-73
2022/06/25 16:55:59;;;;;;;9.90;4.15;;;;;;;;;;5013114;28;20109;-72
2022/06/25 16:58:25;;;;;;;9.52;3.80;;;;;;;;;;5014128;28;20034;-71
2022/06/25 17:00:51;;;;;;;9.85;4.32;;;;;;;;;;5013284;28;20062;-72
2022/06/25 17:03:18;;;;;;;13.15;4.63;;;;;;;;;;5013615;28;20080;-70
2022/06/25 17:05:44;;;;;;;10.50;4.00;;;;;;;;;;5014183;28;20100;-71
2022/06/25 17:08:11;;;;;;;12.13;4.65;;;;;;;;;;5013817;28;20026;-72
2022/06/25 17:10:37;;;;;;;8.38;4.30;;;;;;;;;;5008683;28;20022;-70
2022/06/25 17:13:03;;;;;;;10.68;4.30;;;;;;;;;;5012056;28;20149;-71
2022/06/25 17:15:29;;;;;;;11.70;4.60;;;;;;;;;;5013306;28;20251;-70